Time;durP1;ratioP1;P1;durP2;ratioP2;P2;SDS_P1;SDS_P2;PMS_P1;PMS_P2;Temp;Humidity;BMP_temperature;BMP_pressure;BME280_temperature;BME280_humidity;BME280_pressure;Samples;Min_cycle;Max_cycle;Signal;HPM_P1;HPM_P2
2021/04/25 00:01:37;;;;;;;9.43;3.90;;;;;;;;;;4956039;28;20015;-78
2021/04/25 00:04:03;;;;;;;11.52;4.07;;;;;;;;;;4955339;28;20019;-78
2021/04/25 00:06:28;;;;;;;10.77;4.40;;;;;;;;;;4957195;29;20322;-78
2021/04/25 00:08:54;;;;;;;8.70;3.90;;;;;;;;;;4956470;29;20055;-78
2021/04/25 00:11:19;;;;;;;10.02;3.60;;;;;;;;;;4957362;29;20031;-78
2021/04/25 00:13:44;;;;;;;11.65;3.83;;;;;;;;;;4957078;28;20030;-78
2021/04/25 00:16:09;;;;;;;;;;;;;;;;;;4957343;29;20166;-77
2021/04/25 00:18:38;;;;;;;13.27;3.23;;;;;;;;;;4972904;28;19926;-78
2021/04/25 00:21:03;;;;;;;8.98;3.45;;;;;;;;;;4976511;28;20715;-78
2021/04/25 00:23:31;;;;;;;9.35;3.38;;;;;;;;;;4976149;28;20025;-78
2021/04/25 00:25:56;;;;;;;8.63;3.13;;;;;;;;;;4975717;28;20086;-78
2021/04/25 00:28:23;;;;;;;11.40;3.47;;;;;;;;;;4976821;28;20118;-78
2021/04/25 00:30:49;;;;;;;7.07;2.80;;;;;;;;;;4975475;28;20098;-78
2021/04/25 00:33:14;;;;;;;7.13;2.75;;;;;;;;;;4974679;28;20102;-78
2021/04/25 00:35:39;;;;;;;;;;;;;;;;;;4976295;28;20038;-78
2021/04/25 00:38:04;;;;;;;8.50;2.73;;;;;;;;;;4975787;28;19906;-78
2021/04/25 00:40:30;;;;;;;7.32;2.97;;;;;;;;;;4976063;28;20250;-79
2021/04/25 00:42:55;;;;;;;7.95;3.20;;;;;;;;;;4976376;28;20057;-78
2021/04/25 00:45:20;;;;;;;8.75;3.17;;;;;;;;;;4975446;28;20027;-77
2021/04/25 00:47:45;;;;;;;;;;;;;;;;;;4976199;28;20026;-77
2021/04/25 00:50:12;;;;;;;8.93;2.92;;;;;;;;;;4975890;28;19906;-77
2021/04/25 00:52:38;;;;;;;6.75;3.08;;;;;;;;;;4974933;28;20022;-78
2021/04/25 00:55:05;;;;;;;8.40;3.13;;;;;;;;;;4975166;28;20030;-77
2021/04/25 00:57:33;;;;;;;9.88;3.00;;;;;;;;;;4974901;28;20109;-77
2021/04/25 00:59:59;;;;;;;8.70;2.90;;;;;;;;;;4975468;28;20023;-78
2021/04/25 01:02:27;;;;;;;8.88;3.17;;;;;;;;;;4974246;28;20435;-78
2021/04/25 01:04:52;;;;;;;8.32;2.80;;;;;;;;;;4974537;28;20065;-77
2021/04/25 01:07:18;;;;;;;7.13;3.00;;;;;;;;;;4974899;28;20054;-78
2021/04/25 01:09:43;;;;;;;9.00;2.65;;;;;;;;;;4975121;28;20136;-79
2021/04/25 01:12:09;;;;;;;11.77;3.10;;;;;;;;;;4975374;28;20030;-77
2021/04/25 01:14:34;;;;;;;;;;;;;;;;;;4975462;28;20019;-78
2021/04/25 01:16:59;;;;;;;11.30;2.75;;;;;;;;;;4972270;28;20004;-78
2021/04/25 01:19:24;;;;;;;8.88;3.25;;;;;;;;;;4955615;28;20512;-78
2021/04/25 01:21:49;;;;;;;6.30;2.78;;;;;;;;;;4954872;29;20039;-78
2021/04/25 01:24:15;;;;;;;6.68;2.95;;;;;;;;;;4954736;29;20090;-78
2021/04/25 01:26:40;;;;;;;;;;;;;;;;;;4937377;29;20050;-78
2021/04/25 01:29:05;;;;;;;8.95;2.83;;;;;;;;;;4944950;28;19930;-78
2021/04/25 01:31:30;;;;;;;7.10;2.60;;;;;;;;;;4953847;28;20082;-78
2021/04/25 01:33:56;;;;;;;7.72;2.60;;;;;;;;;;4954787;29;20015;-77
2021/04/25 01:36:21;;;;;;;8.60;2.60;;;;;;;;;;4954781;29;20027;-77
2021/04/25 01:38:48;;;;;;;;;;;;;;;;;;4955992;29;20023;-78
2021/04/25 01:41:13;;;;;;;8.25;2.58;;;;;;;;;;4954511;29;19922;-78
2021/04/25 01:43:39;;;;;;;10.32;2.90;;;;;;;;;;4954131;28;20054;-78
2021/04/25 01:46:04;;;;;;;;;;;;;;;;;;4955837;29;20074;-78
2021/04/25 01:48:29;;;;;;;11.73;2.72;;;;;;;;;;4955181;28;20044;-78
2021/04/25 01:50:54;;;;;;;8.48;2.50;;;;;;;;;;4955672;29;20110;-78
2021/04/25 01:53:20;;;;;;;7.15;2.80;;;;;;;;;;4954007;28;20027;-77
2021/04/25 01:55:45;;;;;;;8.90;3.33;;;;;;;;;;4955593;29;20093;-77
2021/04/25 01:58:11;;;;;;;8.05;2.60;;;;;;;;;;4954536;28;20415;-78
2021/04/25 02:00:39;;;;;;;7.70;2.70;;;;;;;;;;4954777;29;20392;-78
2021/04/25 02:03:05;;;;;;;8.00;2.45;;;;;;;;;;4955101;28;20030;-78
2021/04/25 02:05:30;;;;;;;8.38;2.83;;;;;;;;;;4954551;29;20038;-78
2021/04/25 02:07:58;;;;;;;8.13;2.72;;;;;;;;;;4955016;29;20027;-78
2021/04/25 02:10:23;;;;;;;6.93;2.55;;;;;;;;;;4955285;29;20041;-77
2021/04/25 02:12:49;;;;;;;6.45;2.55;;;;;;;;;;4953382;28;20027;-78
2021/04/25 02:15:15;;;;;;;7.07;2.75;;;;;;;;;;4954059;28;20027;-77
2021/04/25 02:17:42;;;;;;;8.88;2.60;;;;;;;;;;4962569;28;20142;-78
2021/04/25 02:20:08;;;;;;;5.55;2.33;;;;;;;;;;4972876;28;20369;-77
2021/04/25 02:22:34;;;;;;;15.07;2.85;;;;;;;;;;4974427;28;20447;-77
2021/04/25 02:24:59;;;;;;;8.23;2.80;;;;;;;;;;4973732;28;20085;-78
2021/04/25 02:27:27;;;;;;;4.80;2.60;;;;;;;;;;4974346;28;20114;-78
2021/04/25 02:29:52;;;;;;;7.90;2.88;;;;;;;;;;4974565;28;20037;-78
2021/04/25 02:32:17;;;;;;;8.75;3.08;;;;;;;;;;4973259;28;20022;-78
2021/04/25 02:34:43;;;;;;;8.95;3.17;;;;;;;;;;4972887;28;20027;-77
2021/04/25 02:37:10;;;;;;;8.27;2.92;;;;;;;;;;4973722;28;20034;-78
2021/04/25 02:39:35;;;;;;;8.68;2.90;;;;;;;;;;4973983;28;20050;-78
2021/04/25 02:42:00;;;;;;;7.05;2.95;;;;;;;;;;4973701;28;20464;-78
2021/04/25 02:44:28;;;;;;;8.45;3.00;;;;;;;;;;4971619;28;20049;-78
2021/04/25 02:46:55;;;;;;;8.00;3.10;;;;;;;;;;4972727;28;20019;-78
2021/04/25 02:49:21;;;;;;;9.40;2.92;;;;;;;;;;4973297;28;20041;-78
2021/04/25 02:51:46;;;;;;;9.15;3.55;;;;;;;;;;4973844;28;20105;-79
2021/04/25 02:54:11;;;;;;;9.95;3.42;;;;;;;;;;4974209;28;20362;-78
2021/04/25 02:56:36;;;;;;;5.80;2.80;;;;;;;;;;4973755;28;20051;-78
2021/04/25 02:59:02;;;;;;;4.57;2.63;;;;;;;;;;4973864;28;20041;-78
2021/04/25 03:01:30;;;;;;;12.27;3.10;;;;;;;;;;4973292;28;20023;-78
2021/04/25 03:03:57;;;;;;;6.72;2.75;;;;;;;;;;4974239;28;20027;-78
2021/04/25 03:07:02;;;;;;;8.02;3.03;;;;;;;;;;4974097;28;20050;-79
2021/04/25 03:09:27;;;;;;;7.45;2.97;;;;;;;;;;4969588;28;20026;-78
2021/04/25 03:11:52;;;;;;;9.68;2.90;;;;;;;;;;4971752;28;20094;-78
2021/04/25 03:14:20;;;;;;;12.18;3.45;;;;;;;;;;4970304;28;20023;-78
2021/04/25 03:16:45;;;;;;;8.45;3.10;;;;;;;;;;4971737;28;20511;-77
2021/04/25 03:19:11;;;;;;;7.82;3.13;;;;;;;;;;4959564;28;20114;-78
2021/04/25 03:21:36;;;;;;;;;;;;;;;;;;4953740;29;20345;-78
2021/04/25 03:24:01;;;;;;;10.90;3.50;;;;;;;;;;4948211;28;19907;-78
2021/04/25 03:26:26;;;;;;;8.15;3.35;;;;;;;;;;4940365;29;20464;-78
2021/04/25 03:28:51;;;;;;;8.20;3.47;;;;;;;;;;4954696;28;20039;-78
2021/04/25 03:31:17;;;;;;;9.68;3.58;;;;;;;;;;4951476;28;20020;-78
2021/04/25 03:33:42;;;;;;;5.72;3.22;;;;;;;;;;4955026;28;20023;-78
2021/04/25 03:36:07;;;;;;;12.55;3.78;;;;;;;;;;4953777;28;20086;-78
2021/04/25 03:38:32;;;;;;;7.28;3.58;;;;;;;;;;4955129;28;20102;-78
2021/04/25 03:40:58;;;;;;;;;;;;;;;;;;4953956;28;20023;-78
2021/04/25 03:43:23;;;;;;;8.05;3.67;;;;;;;;;;4956659;28;19997;-77
2021/04/25 03:45:50;;;;;;;;;;;;;;;;;;4946668;28;20270;-77
2021/04/25 03:48:18;;;;;;;;;;;;;;;;;;4955598;28;20610;-78
2021/04/25 03:50:43;;;;;;;9.75;3.90;;;;;;;;;;4956166;28;20336;-78
2021/04/25 03:53:08;;;;;;;9.80;3.60;;;;;;;;;;4955998;28;20015;-77
2021/04/25 03:55:34;;;;;;;12.57;4.25;;;;;;;;;;4954597;28;20030;-78
2021/04/25 03:57:59;;;;;;;11.05;4.05;;;;;;;;;;4951852;28;20070;-78
2021/04/25 04:00:24;;;;;;;7.85;4.10;;;;;;;;;;4955602;28;20019;-78
2021/04/25 04:02:50;;;;;;;8.23;4.05;;;;;;;;;;4948756;29;20023;-78
2021/04/25 04:05:15;;;;;;;8.35;4.13;;;;;;;;;;4956162;28;20094;-77
2021/04/25 04:07:44;;;;;;;8.10;4.55;;;;;;;;;;4953444;28;20352;-78
2021/04/25 04:10:11;;;;;;;9.02;4.45;;;;;;;;;;4952224;28;20046;-78
2021/04/25 04:12:36;;;;;;;8.45;4.75;;;;;;;;;;4958349;28;20034;-77
2021/04/25 04:15:02;;;;;;;12.02;4.32;;;;;;;;;;4954961;28;20019;-78
2021/04/25 04:17:27;;;;;;;;;;;;;;;;;;4959444;28;20101;-77
2021/04/25 04:19:55;;;;;;;8.75;4.30;;;;;;;;;;4973321;28;19914;-77
2021/04/25 04:22:22;;;;;;;8.48;4.25;;;;;;;;;;4966902;28;20019;-78
2021/04/25 04:24:49;;;;;;;8.90;4.28;;;;;;;;;;4971150;28;20025;-78
2021/04/25 04:27:15;;;;;;;12.63;4.82;;;;;;;;;;4967977;28;20023;-78
2021/04/25 04:29:42;;;;;;;9.40;5.25;;;;;;;;;;4967739;28;20053;-78
2021/04/25 04:32:07;;;;;;;11.93;5.32;;;;;;;;;;4970751;28;20674;-77
2021/04/25 04:34:33;;;;;;;10.63;5.28;;;;;;;;;;4982341;28;20022;-78
2021/04/25 04:36:58;;;;;;;;;;;;;;;;;;4958743;28;20467;-78
2021/04/25 04:39:25;;;;;;;11.20;5.03;;;;;;;;;;4971110;28;19914;-78
2021/04/25 04:41:50;;;;;;;7.47;5.13;;;;;;;;;;4968709;28;20023;-78
2021/04/25 04:44:18;;;;;;;7.60;4.60;;;;;;;;;;4971617;28;20033;-78
2021/04/25 04:46:44;;;;;;;12.02;5.30;;;;;;;;;;4971652;28;20023;-78
2021/04/25 04:49:11;;;;;;;13.10;5.70;;;;;;;;;;4973719;28;20030;-78
2021/04/25 04:51:37;;;;;;;9.65;5.22;;;;;;;;;;4972647;28;20041;-78
2021/04/25 04:54:02;;;;;;;11.40;5.00;;;;;;;;;;4973932;28;20019;-79
2021/04/25 04:56:30;;;;;;;10.27;4.97;;;;;;;;;;4973003;28;20106;-79
2021/04/25 04:58:57;;;;;;;12.50;5.05;;;;;;;;;;4967009;28;20026;-78
2021/04/25 05:01:22;;;;;;;7.90;4.97;;;;;;;;;;4950929;28;20113;-78
2021/04/25 05:03:48;;;;;;;11.90;5.10;;;;;;;;;;4977724;28;20515;-78
2021/04/25 05:06:15;;;;;;;11.90;5.78;;;;;;;;;;4973621;28;20022;-79
2021/04/25 05:08:40;;;;;;;11.57;5.53;;;;;;;;;;4972325;28;20019;-77
2021/04/25 05:11:06;;;;;;;10.52;5.20;;;;;;;;;;4973461;28;20034;-78
2021/04/25 05:13:31;;;;;;;;;;;;;;;;;;4975612;28;20027;-78
2021/04/25 05:15:56;;;;;;;9.13;5.32;;;;;;;;;;4967982;28;20366;-78
2021/04/25 05:18:21;;;;;;;;;;;;;;;;;;4969932;28;20050;-78
2021/04/25 05:20:47;;;;;;;8.98;4.72;;;;;;;;;;4973973;28;20022;-78
2021/04/25 05:23:12;;;;;;;12.25;5.25;;;;;;;;;;4969425;28;20094;-78
2021/04/25 05:25:37;;;;;;;8.50;5.15;;;;;;;;;;4971481;28;20059;-77
2021/04/25 05:28:02;;;;;;;;;;;;;;;;;;4971095;28;20031;-78
2021/04/25 05:30:27;;;;;;;12.90;5.30;;;;;;;;;;4975099;28;20362;-78
2021/04/25 05:32:53;;;;;;;;;;;;;;;;;;4975538;28;20376;-78
2021/04/25 05:35:18;;;;;;;13.23;5.05;;;;;;;;;;4976286;28;19921;-78
2021/04/25 05:37:43;;;;;;;12.48;5.15;;;;;;;;;;4975118;28;20010;-78
2021/04/25 05:40:09;;;;;;;;;;;;;;;;;;4976645;28;20039;-78
2021/04/25 05:42:36;;;;;;;9.10;4.80;;;;;;;;;;4973426;28;19997;-77
2021/04/25 05:45:02;;;;;;;11.75;5.28;;;;;;;;;;4979655;28;20634;-78
2021/04/25 05:47:30;;;;;;;11.88;5.07;;;;;;;;;;4975736;28;20014;-78
2021/04/25 05:49:55;;;;;;;11.30;5.15;;;;;;;;;;4980319;28;20387;-78
2021/04/25 05:52:22;;;;;;;12.13;5.28;;;;;;;;;;4974181;28;20077;-78
2021/04/25 05:54:48;;;;;;;11.13;5.40;;;;;;;;;;4983588;28;20034;-79
2021/04/25 05:57:15;;;;;;;13.43;5.45;;;;;;;;;;4975080;28;20065;-77
2021/04/25 05:59:40;;;;;;;13.60;5.82;;;;;;;;;;4973941;28;20047;-77
2021/04/25 06:02:06;;;;;;;11.32;5.05;;;;;;;;;;4985542;28;20052;-76
2021/04/25 06:04:31;;;;;;;8.95;4.43;;;;;;;;;;4983642;28;20118;-75
2021/04/25 06:06:56;;;;;;;;;;;;;;;;;;4976466;28;20471;-75
2021/04/25 06:09:22;;;;;;;10.70;5.25;;;;;;;;;;4973822;28;19909;-75
2021/04/25 06:11:47;;;;;;;11.07;5.18;;;;;;;;;;4974011;28;20034;-75
2021/04/25 06:14:12;;;;;;;;;;;;;;;;;;4985022;28;20363;-76
2021/04/25 06:16:38;;;;;;;9.57;4.50;;;;;;;;;;4981017;28;19925;-75
2021/04/25 06:19:06;;;;;;;9.35;5.45;;;;;;;;;;4973627;28;20364;-76
2021/04/25 06:21:33;;;;;;;9.98;4.65;;;;;;;;;;4967402;28;20098;-75
2021/04/25 06:24:01;;;;;;;7.72;4.50;;;;;;;;;;4968794;28;20023;-76
2021/04/25 06:26:28;;;;;;;12.43;4.93;;;;;;;;;;4973659;28;20045;-76
2021/04/25 06:28:53;;;;;;;8.02;5.10;;;;;;;;;;4964651;28;20015;-76
2021/04/25 06:31:19;;;;;;;9.40;5.00;;;;;;;;;;4971130;28;20097;-76
2021/04/25 06:33:45;;;;;;;12.38;5.20;;;;;;;;;;4973659;28;20022;-76
2021/04/25 06:36:10;;;;;;;10.48;4.80;;;;;;;;;;4973950;28;20031;-76
2021/04/25 06:38:36;;;;;;;10.27;5.38;;;;;;;;;;4978822;28;20330;-76
2021/04/25 06:41:01;;;;;;;9.55;5.00;;;;;;;;;;4984115;28;20034;-76
2021/04/25 06:43:26;;;;;;;10.98;5.53;;;;;;;;;;4993928;28;20061;-76
2021/04/25 06:45:51;;;;;;;8.65;5.47;;;;;;;;;;4986858;28;20019;-76
2021/04/25 06:48:17;;;;;;;13.90;5.47;;;;;;;;;;4973395;28;20048;-76
2021/04/25 06:50:43;;;;;;;8.75;5.65;;;;;;;;;;4976645;28;20113;-76
2021/04/25 06:53:10;;;;;;;11.35;5.78;;;;;;;;;;4977702;28;20467;-76
2021/04/25 06:55:35;;;;;;;7.22;5.22;;;;;;;;;;4979309;28;20069;-76
2021/04/25 06:58:01;;;;;;;9.95;5.18;;;;;;;;;;4977619;28;20022;-77
2021/04/25 07:00:26;;;;;;;9.07;5.35;;;;;;;;;;4977463;28;20106;-78
2021/04/25 07:02:55;;;;;;;9.95;5.45;;;;;;;;;;4977903;28;20031;-77
2021/04/25 07:05:20;;;;;;;10.40;5.15;;;;;;;;;;4978975;28;20023;-78
2021/04/25 07:07:47;;;;;;;11.68;5.07;;;;;;;;;;4977811;28;20034;-78
2021/04/25 07:10:13;;;;;;;12.27;5.00;;;;;;;;;;4977904;28;20151;-74
2021/04/25 07:12:42;;;;;;;8.73;4.88;;;;;;;;;;4977059;28;20074;-74
2021/04/25 07:15:07;;;;;;;7.68;4.20;;;;;;;;;;4987063;28;20034;-74
2021/04/25 07:17:35;;;;;;;9.15;4.90;;;;;;;;;;4973522;28;20456;-77
2021/04/25 07:20:00;;;;;;;11.77;4.85;;;;;;;;;;4956522;28;20039;-77
2021/04/25 07:22:25;;;;;;;9.57;4.88;;;;;;;;;;4942729;29;20046;-75
2021/04/25 07:24:51;;;;;;;12.70;4.93;;;;;;;;;;4946590;29;20122;-75
2021/04/25 07:27:19;;;;;;;8.50;5.07;;;;;;;;;;4957505;29;20034;-75
2021/04/25 07:29:45;;;;;;;11.15;5.57;;;;;;;;;;4953728;29;20024;-75
2021/04/25 07:32:13;;;;;;;9.55;4.90;;;;;;;;;;4948901;28;20034;-75
2021/04/25 07:34:40;;;;;;;6.65;4.90;;;;;;;;;;4954217;28;20100;-75
2021/04/25 07:37:06;;;;;;;7.90;4.78;;;;;;;;;;4956081;28;20380;-75
2021/04/25 07:39:35;;;;;;;9.07;5.07;;;;;;;;;;4955772;29;20102;-77
2021/04/25 07:42:05;;;;;;;9.95;5.13;;;;;;;;;;4956348;28;20459;-75
2021/04/25 07:44:30;;;;;;;8.35;5.05;;;;;;;;;;4940524;28;20058;-76
2021/04/25 07:46:56;;;;;;;9.23;5.82;;;;;;;;;;4957698;29;20617;-77
2021/04/25 07:49:23;;;;;;;13.55;5.13;;;;;;;;;;4954619;28;20047;-77
2021/04/25 07:51:49;;;;;;;10.57;5.47;;;;;;;;;;4957540;29;20027;-77
2021/04/25 07:54:14;;;;;;;8.60;4.90;;;;;;;;;;4956939;28;20452;-77
2021/04/25 07:56:44;;;;;;;9.23;5.00;;;;;;;;;;4957309;28;20018;-76
2021/04/25 07:59:09;;;;;;;9.48;5.28;;;;;;;;;;4958346;28;20437;-76
2021/04/25 08:01:34;;;;;;;10.40;5.43;;;;;;;;;;4956747;28;20039;-77
2021/04/25 08:04:00;;;;;;;10.55;5.55;;;;;;;;;;4967863;28;20016;-76
2021/04/25 08:06:26;;;;;;;11.38;5.25;;;;;;;;;;4958532;28;20053;-77
2021/04/25 08:08:53;;;;;;;8.70;5.05;;;;;;;;;;4955903;29;20023;-78
2021/04/25 08:11:19;;;;;;;11.25;5.65;;;;;;;;;;4956805;29;20026;-78
2021/04/25 08:13:44;;;;;;;9.30;5.63;;;;;;;;;;4954543;28;20023;-76
2021/04/25 08:16:12;;;;;;;14.07;6.00;;;;;;;;;;4955234;28;20174;-75
2021/04/25 08:18:37;;;;;;;12.48;4.97;;;;;;;;;;4972530;28;20065;-75
2021/04/25 08:21:02;;;;;;;9.23;5.35;;;;;;;;;;4976129;28;20019;-76
2021/04/25 08:23:28;;;;;;;8.15;4.72;;;;;;;;;;4974904;28;20352;-76
2021/04/25 08:25:53;;;;;;;9.15;5.22;;;;;;;;;;4971479;28;20072;-76
2021/04/25 08:28:18;;;;;;;6.80;4.53;;;;;;;;;;4977634;28;20018;-76
2021/04/25 08:30:46;;;;;;;7.57;5.85;;;;;;;;;;4977985;28;20011;-78
2021/04/25 08:33:15;;;;;;;8.57;5.00;;;;;;;;;;4974274;28;20082;-77
2021/04/25 08:35:43;;;;;;;13.13;5.72;;;;;;;;;;4975890;28;20038;-78
2021/04/25 08:38:08;;;;;;;10.25;5.82;;;;;;;;;;4975424;28;20023;-79
2021/04/25 08:40:36;;;;;;;8.27;5.18;;;;;;;;;;4967462;28;20042;-78
2021/04/25 08:43:03;;;;;;;10.48;5.10;;;;;;;;;;4971113;28;20023;-75
2021/04/25 08:45:29;;;;;;;9.95;5.65;;;;;;;;;;4979009;28;20046;-77
2021/04/25 08:47:56;;;;;;;9.35;5.07;;;;;;;;;;4980947;28;20463;-76
2021/04/25 08:50:22;;;;;;;9.20;4.88;;;;;;;;;;4975483;28;20035;-76
2021/04/25 08:52:50;;;;;;;7.78;5.35;;;;;;;;;;4978091;28;20050;-75
2021/04/25 08:55:16;;;;;;;8.80;5.25;;;;;;;;;;4992022;28;20029;-77
2021/04/25 08:57:41;;;;;;;10.82;5.30;;;;;;;;;;4970935;28;20035;-77
2021/04/25 09:00:07;;;;;;;8.45;5.25;;;;;;;;;;4973871;28;20031;-76
2021/04/25 09:02:33;;;;;;;8.57;4.75;;;;;;;;;;4977886;28;20110;-76
2021/04/25 09:04:58;;;;;;;6.95;4.80;;;;;;;;;;4982998;28;20110;-76
2021/04/25 09:07:26;;;;;;;10.00;5.45;;;;;;;;;;4979039;28;20007;-77
2021/04/25 09:09:52;;;;;;;8.55;5.03;;;;;;;;;;4979713;28;20285;-77
2021/04/25 09:12:38;;;;;;;9.82;5.05;;;;;;;;;;4982329;28;20100;-77
2021/04/25 09:15:23;;;;;;;9.57;4.80;;;;;;;;;;4980520;28;20079;-76
2021/04/25 09:17:49;;;;;;;8.88;5.20;;;;;;;;;;4979143;28;20463;-76
2021/04/25 09:20:15;;;;;;;8.38;4.78;;;;;;;;;;4981241;28;20034;-75
2021/04/25 09:22:42;;;;;;;8.55;4.80;;;;;;;;;;4983705;28;20034;-75
2021/04/25 09:25:08;;;;;;;9.35;5.20;;;;;;;;;;4975624;28;20029;-76
2021/04/25 09:27:35;;;;;;;6.63;4.90;;;;;;;;;;4981811;28;20348;-76
2021/04/25 09:30:01;;;;;;;7.32;4.68;;;;;;;;;;4977119;28;20120;-76
2021/04/25 09:32:28;;;;;;;8.43;4.80;;;;;;;;;;4974186;28;20385;-77
2021/04/25 09:35:09;;;;;;;8.23;4.75;;;;;;;;;;4977383;28;20037;-75
2021/04/25 09:37:35;;;;;;;8.43;5.20;;;;;;;;;;4974353;28;20149;-77
2021/04/25 09:40:04;;;;;;;11.77;4.57;;;;;;;;;;4979502;28;20436;-76
2021/04/25 09:42:30;;;;;;;6.65;4.35;;;;;;;;;;4981463;28;20105;-76
2021/04/25 09:44:56;;;;;;;5.95;4.20;;;;;;;;;;4974851;28;20448;-76
2021/04/25 09:47:34;;;;;;;9.65;4.95;;;;;;;;;;4974114;28;20062;-76
2021/04/25 09:50:03;;;;;;;7.72;5.10;;;;;;;;;;4977860;28;20026;-76
2021/04/25 09:52:37;;;;;;;9.02;4.90;;;;;;;;;;4977752;28;20026;-76
2021/04/25 09:55:20;;;;;;;12.35;5.57;;;;;;;;;;4972736;28;20037;-76
2021/04/25 09:57:48;;;;;;;8.85;4.47;;;;;;;;;;4959754;28;20022;-75
2021/04/25 10:00:16;;;;;;;8.30;4.50;;;;;;;;;;4970847;28;20114;-74
2021/04/25 10:03:09;;;;;;;6.93;4.55;;;;;;;;;;4974399;28;20023;-73
2021/04/25 10:05:36;;;;;;;9.18;4.85;;;;;;;;;;4972606;28;20042;-73
2021/04/25 10:08:01;;;;;;;9.02;4.95;;;;;;;;;;4973560;28;20461;-74
2021/04/25 10:10:29;;;;;;;7.10;4.95;;;;;;;;;;4973629;28;20106;-74
2021/04/25 10:12:55;;;;;;;7.72;5.07;;;;;;;;;;4975197;28;20038;-75
2021/04/25 10:15:21;;;;;;;7.40;4.65;;;;;;;;;;4975401;28;20030;-76
2021/04/25 10:17:51;;;;;;;9.65;5.28;;;;;;;;;;4974786;28;20046;-77
2021/04/25 10:20:19;;;;;;;9.77;5.05;;;;;;;;;;4974315;28;20034;-77
2021/04/25 10:22:44;;;;;;;7.75;4.82;;;;;;;;;;4973493;28;20019;-76
2021/04/25 10:25:15;;;;;;;9.45;4.70;;;;;;;;;;4963539;28;20026;-76
2021/04/25 10:27:42;;;;;;;7.80;5.32;;;;;;;;;;4973998;28;20069;-75
2021/04/25 10:30:09;;;;;;;10.32;5.20;;;;;;;;;;4972593;28;20026;-74
2021/04/25 10:32:35;;;;;;;6.18;4.90;;;;;;;;;;4960556;28;20086;-74
2021/04/25 10:35:15;;;;;;;7.32;5.03;;;;;;;;;;4965555;28;20038;-74
2021/04/25 10:37:41;;;;;;;10.75;5.28;;;;;;;;;;4973793;28;20045;-73
2021/04/25 10:40:27;;;;;;;7.85;5.20;;;;;;;;;;4973780;28;20046;-73
2021/04/25 10:42:54;;;;;;;10.38;5.03;;;;;;;;;;4967645;28;20081;-75
2021/04/25 10:45:25;;;;;;;6.68;4.75;;;;;;;;;;4967682;28;20026;-76
2021/04/25 10:48:13;;;;;;;7.18;4.22;;;;;;;;;;4983945;28;20090;-75
2021/04/25 10:50:39;;;;;;;7.68;4.18;;;;;;;;;;4973157;28;20018;-76
2021/04/25 10:53:25;;;;;;;5.47;3.90;;;;;;;;;;4972480;28;20097;-74
2021/04/25 10:55:51;;;;;;;5.97;3.95;;;;;;;;;;4972669;28;20050;-75
2021/04/25 10:58:21;;;;;;;6.25;3.67;;;;;;;;;;4972502;28;20061;-74
2021/04/25 11:00:46;;;;;;;6.90;3.58;;;;;;;;;;4973803;28;20101;-76
2021/04/25 11:03:21;;;;;;;5.18;4.10;;;;;;;;;;4969476;28;20106;-76
2021/04/25 11:05:47;;;;;;;5.32;3.40;;;;;;;;;;4967519;28;20047;-75
2021/04/25 11:08:12;;;;;;;8.70;3.85;;;;;;;;;;4968899;28;20031;-76
2021/04/25 11:10:50;;;;;;;7.05;3.83;;;;;;;;;;4968197;28;20041;-76
2021/04/25 11:13:34;;;;;;;5.28;3.45;;;;;;;;;;4970336;28;20026;-77
2021/04/25 11:16:06;;;;;;;4.70;3.40;;;;;;;;;;4970978;28;20025;-75
2021/04/25 11:18:48;;;;;;;7.28;4.13;;;;;;;;;;4968288;28;20050;-76
2021/04/25 11:21:25;;;;;;;6.38;3.72;;;;;;;;;;4973576;28;20111;-77
2021/04/25 11:23:51;;;;;;;6.18;3.45;;;;;;;;;;4971836;28;20023;-77
2021/04/25 11:26:41;;;;;;;6.15;4.03;;;;;;;;;;4972031;28;20049;-76
2021/04/25 11:29:12;;;;;;;7.22;3.65;;;;;;;;;;4970125;28;20035;-76
2021/04/25 11:31:50;;;;;;;7.47;3.78;;;;;;;;;;4979385;28;20351;-75
2021/04/25 11:34:34;;;;;;;4.85;3.30;;;;;;;;;;4963446;28;20027;-75
2021/04/25 11:37:06;;;;;;;4.85;3.60;;;;;;;;;;4982863;28;20057;-76
2021/04/25 11:39:36;;;;;;;6.95;3.70;;;;;;;;;;4982674;28;20037;-76
2021/04/25 11:42:02;;;;;;;4.70;3.15;;;;;;;;;;4995257;28;20423;-75
2021/04/25 11:44:32;;;;;;;4.38;3.20;;;;;;;;;;4965929;28;20059;-75
2021/04/25 11:46:58;;;;;;;4.60;3.13;;;;;;;;;;4957889;29;20027;-75
2021/04/25 11:49:31;;;;;;;4.05;3.13;;;;;;;;;;4956767;28;20026;-75
2021/04/25 11:52:12;;;;;;;5.20;3.35;;;;;;;;;;4959310;28;20027;-77
2021/04/25 11:54:43;;;;;;;7.10;3.28;;;;;;;;;;4976945;28;20089;-75
2021/04/25 11:57:16;;;;;;;4.63;3.08;;;;;;;;;;4975961;28;20037;-76
2021/04/25 12:00:02;;;;;;;3.95;3.17;;;;;;;;;;4979171;28;20026;-75
2021/04/25 12:02:28;;;;;;;4.25;3.13;;;;;;;;;;4956788;29;20408;-76
2021/04/25 12:04:57;;;;;;;4.93;2.90;;;;;;;;;;4957235;29;20033;-76
2021/04/25 12:07:39;;;;;;;5.38;3.08;;;;;;;;;;4957307;29;20023;-76
2021/04/25 12:10:08;;;;;;;5.00;2.83;;;;;;;;;;4967140;28;20090;-76
2021/04/25 12:12:33;;;;;;;3.75;2.97;;;;;;;;;;4973344;28;20015;-77
2021/04/25 12:15:06;;;;;;;5.70;2.88;;;;;;;;;;4976707;28;20022;-77
2021/04/25 12:17:31;;;;;;;4.20;2.90;;;;;;;;;;4974737;28;20385;-76
2021/04/25 12:20:00;;;;;;;3.40;2.50;;;;;;;;;;4976620;28;20073;-75
2021/04/25 12:22:28;;;;;;;3.97;3.03;;;;;;;;;;4976109;28;20019;-75
2021/04/25 12:24:54;;;;;;;4.22;2.88;;;;;;;;;;4976395;28;20022;-76
2021/04/25 12:27:19;;;;;;;5.80;2.80;;;;;;;;;;4974204;28;20038;-75
2021/04/25 12:29:48;;;;;;;4.93;3.10;;;;;;;;;;4957191;29;20035;-76
2021/04/25 12:32:17;;;;;;;4.22;2.97;;;;;;;;;;4974603;28;20080;-76
2021/04/25 12:34:53;;;;;;;5.95;2.92;;;;;;;;;;4976411;28;20103;-77
2021/04/25 12:37:18;;;;;;;6.15;2.92;;;;;;;;;;4976729;28;20121;-76
2021/04/25 12:39:44;;;;;;;3.35;2.90;;;;;;;;;;4975770;28;20019;-76
2021/04/25 12:42:21;;;;;;;6.68;3.10;;;;;;;;;;4969752;28;20110;-76
2021/04/25 12:44:49;;;;;;;3.17;2.60;;;;;;;;;;4956563;29;20580;-73
2021/04/25 12:47:16;;;;;;;5.90;2.90;;;;;;;;;;4955914;28;20019;-73
2021/04/25 12:49:45;;;;;;;4.72;3.25;;;;;;;;;;4987583;28;20121;-73
2021/04/25 12:52:14;;;;;;;5.28;3.10;;;;;;;;;;4994370;28;20034;-73
2021/04/25 12:54:43;;;;;;;6.72;3.05;;;;;;;;;;4974423;28;20019;-74
2021/04/25 12:57:08;;;;;;;5.57;2.95;;;;;;;;;;4972797;28;20050;-72
2021/04/25 12:59:37;;;;;;;4.20;2.78;;;;;;;;;;4979251;28;20044;-75
2021/04/25 13:02:02;;;;;;;5.18;2.97;;;;;;;;;;4994646;28;20510;-75
2021/04/25 13:04:36;;;;;;;4.53;3.17;;;;;;;;;;4988210;28;20027;-76
2021/04/25 13:07:20;;;;;;;7.70;3.40;;;;;;;;;;4982317;28;20026;-76
2021/04/25 13:10:05;;;;;;;6.22;3.03;;;;;;;;;;4985865;28;20023;-76
2021/04/25 13:12:30;;;;;;;4.35;3.20;;;;;;;;;;4979612;28;20333;-75
2021/04/25 13:15:10;;;;;;;7.37;3.00;;;;;;;;;;4970808;28;20100;-76
2021/04/25 13:17:53;;;;;;;4.72;3.00;;;;;;;;;;4981263;28;20096;-76
2021/04/25 13:20:22;;;;;;;5.30;3.10;;;;;;;;;;4981490;28;20030;-77
2021/04/25 13:23:00;;;;;;;4.80;2.80;;;;;;;;;;4975099;28;20269;-76
2021/04/25 13:25:28;;;;;;;6.68;3.30;;;;;;;;;;4980050;28;20033;-76
2021/04/25 13:27:56;;;;;;;5.85;3.10;;;;;;;;;;4976926;28;20030;-76
2021/04/25 13:30:24;;;;;;;8.13;3.10;;;;;;;;;;4974833;28;20138;-76
2021/04/25 13:32:49;;;;;;;4.70;3.20;;;;;;;;;;4971713;28;20059;-76
2021/04/25 13:35:18;;;;;;;3.87;3.00;;;;;;;;;;4955100;28;20062;-76
2021/04/25 13:37:44;;;;;;;6.25;2.92;;;;;;;;;;4962967;28;20121;-76
2021/04/25 13:40:09;;;;;;;4.20;2.97;;;;;;;;;;4982399;28;20101;-76
2021/04/25 13:42:38;;;;;;;4.10;2.80;;;;;;;;;;4971598;28;20019;-76
2021/04/25 13:45:04;;;;;;;4.72;3.05;;;;;;;;;;4974559;28;20325;-76
2021/04/25 13:47:29;;;;;;;5.05;3.30;;;;;;;;;;4969227;28;20029;-76
2021/04/25 13:49:54;;;;;;;3.60;2.80;;;;;;;;;;4975140;28;20110;-76
2021/04/25 13:52:20;;;;;;;5.63;2.70;;;;;;;;;;4980768;28;20056;-76
2021/04/25 13:54:47;;;;;;;3.70;2.47;;;;;;;;;;4983219;28;20018;-76
2021/04/25 13:57:12;;;;;;;9.23;2.80;;;;;;;;;;4975680;28;20416;-77
2021/04/25 13:59:39;;;;;;;4.87;2.70;;;;;;;;;;4971094;28;20065;-78
2021/04/25 14:02:04;;;;;;;4.55;2.83;;;;;;;;;;4973335;28;20356;-79
2021/04/25 14:04:30;;;;;;;5.83;3.67;;;;;;;;;;4973238;28;20038;-79
2021/04/25 14:06:55;;;;;;;5.97;3.67;;;;;;;;;;4974718;28;20027;-79
2021/04/25 14:09:20;;;;;;;7.03;3.28;;;;;;;;;;4977228;28;20022;-78
2021/04/25 14:11:46;;;;;;;6.87;3.60;;;;;;;;;;4981743;28;20035;-84
2021/04/25 14:14:11;;;;;;;6.10;3.72;;;;;;;;;;4965381;28;20041;-84
2021/04/25 14:16:36;;;;;;;5.43;3.43;;;;;;;;;;4966446;28;20073;-82
2021/04/25 14:19:04;;;;;;;7.03;3.47;;;;;;;;;;4969472;28;20051;-84
2021/04/25 14:21:30;;;;;;;4.70;3.45;;;;;;;;;;4977805;28;20527;-82
2021/04/25 14:23:56;;;;;;;5.13;4.00;;;;;;;;;;4972903;28;20109;-82
2021/04/25 14:26:23;;;;;;;9.20;4.00;;;;;;;;;;4980691;28;20026;-82
2021/04/25 14:28:49;;;;;;;7.28;4.15;;;;;;;;;;4976825;28;20019;-83
2021/04/25 14:31:14;;;;;;;7.80;4.20;;;;;;;;;;4980289;28;20085;-85
2021/04/25 14:33:41;;;;;;;10.17;3.53;;;;;;;;;;4979332;28;20352;-82
2021/04/25 14:36:09;;;;;;;3.45;3.08;;;;;;;;;;4977388;28;20308;-82
2021/04/25 14:38:35;;;;;;;4.38;2.72;;;;;;;;;;4979159;28;20018;-79
2021/04/25 14:41:03;;;;;;;4.60;2.90;;;;;;;;;;4982255;28;20019;-79
2021/04/25 14:43:28;;;;;;;6.15;2.80;;;;;;;;;;4977056;28;20055;-81
2021/04/25 14:45:58;;;;;;;5.67;2.77;;;;;;;;;;4974223;28;20047;-79
2021/04/25 14:48:26;;;;;;;4.47;2.50;;;;;;;;;;4980800;28;20033;-82